Weather at Burlington Municipal Airport

Public forecast

Using degrees Fahrenheit for public forecast. Weather courtesy of forecast.io.

Current aviation weather report (METAR) for Burlington Municipal Airport

Retrieved 2020/09/19 04:35 UTC (9 minutes ago):

KBUU 190435Z AUTO 00000KT 10SM CLR 04/04 A3039 RMK AO2 T00360035 PWINO

Closest aviation forecast (TAF) to Burlington Municipal Airport

Closest forecast is Kenosha Regional Airport, 17.6 nm (32.6 km) ESE. Retrieved 2020-09-19 00:22 UTC (4 hours ago):

TAF KENW 182320Z 1900/1924 05006KT P6SM FEW050 FM190500 00000KT P6SM FEW250 FM191400 20003KT P6SM FEW100 FM191700 17005KT P6SM FEW040